Flight Track Log - Related Links

Times and Time Zones

All times are in EDT time to prevent confusion due to time zone crossing. See the VH-EEP flight status page for this flight to view local times or setup timezone preferences in your user account.

Time Position Orientation Groundspeed Altitude Reporting Facility
EDT Latitude Longitude Course Direction KTS MPH feet Rate Location/Type
Wed 07:22:05 AM -32.1029 115.8672 202° Southwest 76 87 500  Level Aus ATC (RADAR)
Wed 07:22:50 AM -32.1150 115.8616 202° Southwest 69 79 1,100 771 Climbing Aus ATC (RADAR)
Wed 07:23:15 AM -32.1201 115.8673 137° Southeast 61 70 1,400 700 Climbing Aus ATC (RADAR)
Wed 07:23:50 AM -32.1216 115.8781 99° East 65 75 1,800 525 Climbing Aus ATC (RADAR)
Wed 07:24:35 AM -32.1026 115.8803 North 96 110 2,100 225 Climbing Aus ATC (RADAR)
Wed 07:25:10 AM -32.0878 115.8688 327° Northwest 115 132 2,100 462 Level Aus ATC (RADAR)
Wed 07:26:19 AM -32.0783 115.8281 285° West 103 119 2,900 742 Climbing Aus ATC (RADAR)
Wed 07:26:39 AM -32.0743 115.8177 294° West 102 117 3,200 655 Climbing Aus ATC (RADAR)
Wed 07:27:14 AM -32.0672 115.8006 296° West 99 114 3,500 593 Climbing Aus ATC (RADAR)
Wed 07:28:00 AM -32.0586 115.7789 295° West 96 110 4,000 675 Climbing Aus ATC (RADAR)
Wed 07:28:34 AM -32.0521 115.7621 294° West 96 110 4,400 649 Climbing Aus ATC (RADAR)
Wed 07:29:14 AM -32.0396 115.7496 320° Northwest 92 106 4,800 545 Climbing Aus ATC (RADAR)
Wed 07:29:40 AM -32.0305 115.7495 360° North 82 94 5,000 600 Climbing Aus ATC (RADAR)
Wed 07:30:14 AM -32.0174 115.7497 North 77 89 5,400 638 Climbing Aus ATC (RADAR)
Wed 07:31:14 AM -31.9984 115.7556 15° North 67 77 6,000 494 Climbing Aus ATC (RADAR)
Wed 07:31:39 AM -31.9952 115.7666 71° East 79 91 6,100  Climbing Aus ATC (RADAR)
Wed 07:32:14 AM -31.9911 115.7866 77° East 103 119 6,000 -75 Descending Aus ATC (RADAR)
Wed 07:32:59 AM -31.9850 115.8127 74° East 109 125 6,000  Level Aus ATC (RADAR)
Wed 07:33:34 AM -31.9819 115.8343 80° East 110 127 6,000 75 Level Aus ATC (RADAR)
Wed 07:34:19 AM -31.9761 115.8607 76° East 107 123 6,100 86 Climbing Aus ATC (RADAR)
Wed 07:34:44 AM -31.9719 115.8749 71° East 107 123 6,100 -100 Level Aus ATC (RADAR)
Wed 07:35:19 AM -31.9685 115.8971 80° East 113 130 6,000 -59 Descending Aus ATC (RADAR)
Wed 07:36:26 AM -31.9529 115.9309 61° Northeast 109 125 6,000 133 Level Aus ATC (RADAR)
Wed 07:36:49 AM -31.9508 115.9460 81° East 107 123 6,200  Climbing Aus ATC (RADAR)
Wed 07:37:23 AM -31.9498 115.9687 87° East 115 132 6,000 -148 Descending Aus ATC (RADAR)
Wed 07:38:10 AM -31.9581 115.9958 110° East 121 139 6,000  Level Aus ATC (RADAR)
Wed 07:38:43 AM -31.9698 116.0151 126° Southeast 122 140 6,000 95 Level Aus ATC (RADAR)
Wed 07:39:13 AM -31.9710 116.0343 94° East 116 133 6,100 -171 Climbing Aus ATC (RADAR)
Wed 07:39:53 AM -31.9721 116.0600 93° East 116 133 5,800 -480 Descending Aus ATC (RADAR)
Wed 07:40:28 AM -31.9721 116.0822 90° East 112 129 5,500 -67 Descending Aus ATC (RADAR)
Wed 07:41:23 AM -31.9738 116.1167 93° East 109 125 5,700 75 Climbing Aus ATC (RADAR)
Wed 07:41:48 AM -31.9744 116.1320 93° East 110 127 5,600 -200 Descending Aus ATC (RADAR)
Wed 07:42:23 AM -31.9815 116.1537 111° Southeast 120 138 5,500 -80 Descending Aus ATC (RADAR)
Wed 07:43:03 AM -31.9916 116.1762 118° Southeast 114 131 5,500 -75 Level Aus ATC (RADAR)
Wed 07:43:43 AM -32.0022 116.1984 119° Southeast 113 130 5,400  Descending Aus ATC (RADAR)
Wed 07:44:13 AM -32.0132 116.2120 134° Southeast 110 127 5,500 92 Climbing Aus ATC (RADAR)
Wed 07:44:48 AM -32.0207 116.2316 114° Southeast 107 123 5,500 -86 Level Aus ATC (RADAR)
Wed 07:45:23 AM -32.0306 116.2507 121° Southeast 113 130 5,400 -60 Descending Aus ATC (RADAR)
Wed 07:46:28 AM -32.0554 116.2789 136° Southeast 115 132 5,400 63 Level Aus ATC (RADAR)
Wed 07:46:58 AM -32.0679 116.2906 141° Southeast 111 128 5,500 100 Climbing Aus ATC (RADAR)
Wed 07:47:28 AM -32.0810 116.3015 145° Southeast 111 128 5,500 80 Level Aus ATC (RADAR)
Wed 07:48:13 AM -32.1002 116.3185 143° Southeast 113 130 5,600  Climbing Aus ATC (RADAR)
Wed 07:48:47 AM -32.1171 116.3306 149° Southeast 119 137 5,500  Descending Aus ATC (RADAR)
Wed 07:49:22 AM -32.1331 116.3439 145° Southeast 119 137 5,600  Climbing Aus ATC (RADAR)
Wed 07:49:53 AM -32.1471 116.3554 145° Southeast 121 139 5,500 -100 Descending Aus ATC (RADAR)
Wed 07:50:22 AM -32.1618 116.3677 145° Southeast 123 142 5,500 143 Level Aus ATC (RADAR)
Wed 07:51:17 AM -32.1815 116.3953 130° Southeast 117 135 5,700 150 Climbing Aus ATC (RADAR)
Wed 07:51:42 AM -32.1877 116.4094 117° Southeast 112 129 5,700 -218 Level Aus ATC (RADAR)
Wed 07:52:12 AM -32.1964 116.4267 121° Southeast 120 138 5,500 -160 Descending Aus ATC (RADAR)
Wed 07:52:57 AM -32.2112 116.4516 125° Southeast 120 138 5,500 -80 Level Aus ATC (RADAR)
Wed 07:53:27 AM -32.2196 116.4680 121° Southeast 115 132 5,400  Descending Aus ATC (RADAR)
Wed 07:54:02 AM -32.2301 116.4871 123° Southeast 113 130 5,500 80 Climbing Aus ATC (RADAR)
Wed 07:54:42 AM -32.2403 116.5104 117° Southeast 114 131 5,500  Level Aus ATC (RADAR)
Wed 07:55:12 AM -32.2495 116.5260 125° Southeast 112 129 5,500  Level Aus ATC (RADAR)
Wed 07:55:47 AM -32.2602 116.5437 126° Southeast 110 127 5,500  Level Aus ATC (RADAR)
Wed 07:56:42 AM -32.2784 116.5726 127° Southeast 116 133 5,500  Level Aus ATC (RADAR)
Wed 07:57:07 AM -32.2877 116.5860 130° Southeast 120 138 5,500 203 Level Aus ATC (RADAR)
Wed 07:57:41 AM -32.2996 116.6049 126° Southeast 118 136 5,700 87 Climbing Aus ATC (RADAR)
Wed 07:58:16 AM -32.3131 116.6231 131° Southeast 123 142 5,600 -80 Descending Aus ATC (RADAR)
Wed 07:58:56 AM -32.3281 116.6441 130° Southeast 123 142 5,600  Level Aus ATC (RADAR)
Wed 07:59:31 AM -32.3397 116.6632 126° Southeast 119 137 5,600  Level Aus ATC (RADAR)
Wed 07:59:56 AM -32.3471 116.6780 121° Southeast 121 139 5,600 -92 Level Aus ATC (RADAR)
Wed 08:00:36 AM -32.3594 116.7021 121° Southeast 124 143 5,500 67 Descending Aus ATC (RADAR)
Wed 08:01:26 AM -32.3733 116.7328 118° Southeast 123 142 5,700 75 Climbing Aus ATC (RADAR)
Wed 08:01:56 AM -32.3839 116.7488 128° Southeast 121 139 5,600 -92 Descending Aus ATC (RADAR)
Wed 08:02:31 AM -32.3964 116.7685 127° Southeast 124 143 5,600  Level Aus ATC (RADAR)
Wed 08:03:11 AM -32.4145 116.7866 140° Southeast 124 143 5,600 86 Level Aus ATC (RADAR)
Wed 08:03:41 AM -32.4276 116.8004 138° Southeast 125 144 5,700 92 Climbing Aus ATC (RADAR)
Wed 08:04:16 AM -32.4434 116.8157 141° Southeast 123 142 5,700  Level Aus ATC (RADAR)
Wed 08:04:46 AM -32.4577 116.8255 150° Southeast 116 133 5,700  Level Aus ATC (RADAR)
Wed 08:05:26 AM -32.4818 116.8266 178° South 128 147 5,700 80 Level Aus ATC (RADAR)
Wed 08:06:01 AM -32.4984 116.8411 143° Southeast 125 144 5,800 -71 Climbing Aus ATC (RADAR)
Wed 08:06:51 AM -32.5117 116.8729 117° Southeast 125 144 5,600 -143 Descending Aus ATC (RADAR)
Wed 08:07:25 AM -32.5203 116.8965 113° Southeast 129 148 5,600 -87 Level Aus ATC (RADAR)
Wed 08:08:00 AM -32.5303 116.9189 118° Southeast 127 146 5,500  Descending Aus ATC (RADAR)
Wed 08:08:40 AM -32.5460 116.9385 134° Southeast 119 137 5,600 -80 Climbing Aus ATC (RADAR)
Wed 08:09:15 AM -32.5469 116.9629 92° East 120 138 5,400 -92 Descending Aus ATC (RADAR)
Wed 08:09:45 AM -32.5462 116.9824 87° East 116 133 5,500 92 Climbing Aus ATC (RADAR)
Wed 08:10:20 AM -32.5451 117.0053 87° East 116 133 5,500  Level Aus ATC (RADAR)
Wed 08:10:45 AM -32.5433 117.0209 82° East 112 129 5,500 67 Level Aus ATC (RADAR)
Wed 08:11:50 AM -32.5357 117.0602 77° East 115 132 5,600 71 Climbing Aus ATC (RADAR)
Wed 08:12:10 AM -32.5352 117.0730 87° East 117 135 5,600  Level Aus ATC (RADAR)
Wed 08:12:40 AM -32.5461 117.0894 128° Southeast 120 138 5,600 92 Level Aus ATC (RADAR)
Wed 08:13:15 AM -32.5562 117.1092 121° Southeast 116 133 5,700 160 Climbing Aus ATC (RADAR)
Wed 08:13:55 AM -32.5701 117.1302 128° Southeast 117 135 5,800  Climbing Aus ATC (RADAR)
Wed 08:14:30 AM -32.5806 117.1502 122° Southeast 120 138 5,700 -86 Descending Aus ATC (RADAR)
Wed 08:15:05 AM -32.5942 117.1670 134° Southeast 117 135 5,700  Level Aus ATC (RADAR)
Wed 08:15:35 AM -32.6092 117.1576 208° Southwest 103 119 5,700 94 Level Aus ATC (RADAR)
Wed 08:16:09 AM -32.6061 117.1379 281° West 97 112 5,800 -67 Climbing Aus ATC (RADAR)
Wed 08:17:05 AM -32.5941 117.1137 300° West 92 106 5,600 -225 Descending Aus ATC (RADAR)
Wed 08:17:29 AM -32.5899 117.1018 293° West 92 106 5,500 -111 Descending Aus ATC (RADAR)
Wed 08:17:59 AM -32.5833 117.0884 300° West 93 107 5,500  Level Aus ATC (RADAR)
Wed 08:18:44 AM -32.5744 117.0681 297° West 91 105 5,500  Level Aus ATC (RADAR)
Wed 08:19:09 AM -32.5642 117.0671 355° North 74 85 5,500  Level Aus ATC (RADAR)
Wed 08:19:44 AM -32.5463 117.0711 11° North 103 119 5,500  Level Aus ATC (RADAR)
Wed 08:20:24 AM -32.5292 117.0767 15° North 97 112 5,500 -80 Level Aus ATC (RADAR)
Wed 08:20:59 AM -32.5205 117.0969 63° Northeast 117 135 5,400 -86 Descending Aus ATC (RADAR)
Wed 08:21:34 AM -32.5148 117.1183 72° East 117 135 5,400  Level Aus ATC (RADAR)
Wed 08:22:29 AM -32.5105 117.1522 81° East 107 123 5,400 -75 Level Aus ATC (RADAR)
Wed 08:22:54 AM -32.5048 117.1668 66° East 109 125 5,300 -100 Descending Aus ATC (RADAR)
Wed 08:23:29 AM -32.4955 117.1868 61° Northeast 115 132 5,300  Level Aus ATC (RADAR)
Wed 08:24:04 AM -32.4867 117.2055 61° Northeast 109 125 5,300 171 Level Aus ATC (RADAR)
Wed 08:24:39 AM -32.4717 117.2058 North 103 119 5,500 343 Climbing Aus ATC (RADAR)
Wed 08:25:14 AM -32.4708 117.1907 274° West 74 85 5,700 -80 Climbing Aus ATC (RADAR)
Wed 08:25:54 AM -32.4930 117.1792 203° Southwest 114 131 5,400 -324 Descending Aus ATC (RADAR)
Wed 08:26:28 AM -32.5116 117.1693 204° Southwest 122 140 5,300 -71 Descending Aus ATC (RADAR)
Wed 08:27:19 AM -32.5313 117.1504 219° Southwest 113 130 5,300  Level Aus ATC (RADAR)
Wed 08:27:53 AM -32.5396 117.1347 238° Southwest 101 116 5,300 -87 Level Aus ATC (RADAR)
Wed 08:28:28 AM -32.5443 117.1154 254° West 105 121 5,200 -80 Descending Aus ATC (RADAR)
Wed 08:29:08 AM -32.5446 117.0940 269° West 98 113 5,200 -80 Level Aus ATC (RADAR)
Wed 08:29:43 AM -32.5466 117.0746 263° West 99 114 5,100 86 Descending Aus ATC (RADAR)
Wed 08:30:18 AM -32.5481 117.0574 264° West 87 100 5,300 185 Climbing Aus ATC (RADAR)
Wed 08:30:48 AM -32.5562 117.0444 233° Southwest 88 101 5,300  Level Aus ATC (RADAR)
Wed 08:31:18 AM -32.5668 117.0315 226° Southwest 101 116 5,300 150 Level Aus ATC (RADAR)
Wed 08:32:08 AM -32.5833 117.0121 225° Southwest 98 113 5,500 225 Climbing Aus ATC (RADAR)
Wed 08:32:38 AM -32.5824 116.9961 274° West 100 115 5,600 185 Climbing Aus ATC (RADAR)
Wed 08:33:13 AM -32.5676 116.9971 North 85 98 5,700  Climbing Aus ATC (RADAR)
Wed 08:33:43 AM -32.5603 117.0139 63° Northeast 110 127 5,600 -185 Descending Aus ATC (RADAR)
Wed 08:34:18 AM -32.5512 117.0356 64° Northeast 121 139 5,500 -92 Descending Aus ATC (RADAR)
Wed 08:34:48 AM -32.5446 117.0535 66° East 119 137 5,500 -92 Level Aus ATC (RADAR)
Wed 08:35:23 AM -32.5362 117.0744 64° Northeast 117 135 5,400 -80 Descending Aus ATC (RADAR)
Wed 08:36:03 AM -32.5422 117.1014 105° East 131 151 5,400  Level Aus ATC (RADAR)
Wed 08:36:33 AM -32.5543 117.1160 134° Southeast 121 139 5,400 58 Level Aus ATC (RADAR)
Wed 08:37:47 AM -32.5758 117.1601 120° Southeast 119 137 5,500 121 Climbing Aus ATC (RADAR)
Wed 08:38:12 AM -32.5819 117.1760 114° Southeast 123 142 5,600  Climbing Aus ATC (RADAR)
Wed 08:38:47 AM -32.5926 117.1967 122° Southeast 123 142 5,500 -86 Descending Aus ATC (RADAR)
Wed 08:39:22 AM -32.6051 117.2161 127° Southeast 124 143 5,500  Level Aus ATC (RADAR)
Wed 08:39:57 AM -32.6151 117.2380 119° Southeast 126 145 5,500  Level Aus ATC (RADAR)
Wed 08:40:32 AM -32.6258 117.2594 121° Southeast 126 145 5,500 -240 Level Aus ATC (RADAR)
Wed 08:41:12 AM -32.6376 117.2839 120° Southeast 128 147 5,200 -400 Descending Aus ATC (RADAR)
Wed 08:41:47 AM -32.6474 117.3034 121° Southeast 117 135 5,000 -450 Descending Aus ATC (RADAR)
Wed 08:42:32 AM -32.6654 117.3244 136° Southeast 118 136 4,600 -450 Descending Aus ATC (RADAR)
Wed 08:43:07 AM -32.6761 117.3405 128° Southeast 107 123 4,400 -1 Descending Aus ATC (RADAR)
Wed 08:46:12 AM -32.8031 117.2104 278° West 5,500 Climbing Aus ATC (Calculated)
Wed 08:48:00 AM -32.8236 117.1894 221° Southwest  Level FlightAware Approximate
Wed 08:49:00 AM -32.8350 117.1777 221° Southwest  Level FlightAware Approximate
Wed 08:50:00 AM -32.8464 117.1660 221° Southwest  Level FlightAware Approximate
Wed 08:51:00 AM -32.8578 117.1543 221° Southwest  Level FlightAware Approximate
Wed 08:51:02 AM -32.8396 117.1152 282° West 4,500  Level Aus ATC (Calculated)
Wed 08:53:00 AM -32.8677 117.1042 198° South  Level FlightAware Approximate
Wed 08:54:00 AM -32.8820 117.0987 198° South  Level FlightAware Approximate
Wed 08:55:00 AM -32.8729 117.0844 249° West  Level Estimated
Wed 08:56:00 AM -32.8789 117.0680 246° West  Level FlightAware Approximate
Wed 08:57:00 AM -32.8850 117.0516 246° West  Level FlightAware Approximate
Wed 08:58:00 AM -32.8910 117.0351 246° West  Level FlightAware Approximate
Wed 08:59:00 AM -32.8970 117.0187 246° West  Level FlightAware Approximate
Wed 09:00:00 AM -32.9030 117.0023 246° West  Level FlightAware Approximate
Wed 09:01:00 AM -32.9090 116.9859 246° West  Level FlightAware Approximate
Wed 09:02:00 AM -32.9150 116.9695 246° West  Level FlightAware Approximate
Wed 09:03:00 AM -32.9210 116.9530 246° West  Level FlightAware Approximate
Wed 09:04:00 AM -32.9270 116.9366 246° West  Level FlightAware Approximate
Wed 09:05:00 AM -32.9330 116.9202 246° West  Level FlightAware Approximate
Wed 09:06:00 AM -32.9390 116.9037 247° West  Level FlightAware Approximate
Wed 09:07:00 AM -32.9450 116.8873 247° West  Level FlightAware Approximate
Wed 09:08:00 AM -32.9510 116.8709 247° West  Level FlightAware Approximate
Wed 09:09:00 AM -32.9570 116.8544 247° West  Level FlightAware Approximate
Wed 09:10:00 AM -32.9630 116.8380 247° West  Level FlightAware Approximate
Wed 09:11:00 AM -32.9689 116.8215 247° West  Level FlightAware Approximate
Wed 09:12:00 AM -32.9749 116.8051 247° West  Level FlightAware Approximate
Wed 09:13:00 AM -32.9809 116.7886 247° West  Level FlightAware Approximate
Wed 09:14:00 AM -32.9869 116.7722 247° West  Level FlightAware Approximate
Wed 09:15:00 AM -32.9929 116.7557 247° West  Level FlightAware Approximate
Wed 09:16:00 AM -32.9988 116.7393 247° West  Level FlightAware Approximate
Wed 09:17:00 AM -33.0048 116.7228 247° West  Level FlightAware Approximate
Wed 09:18:00 AM -33.0108 116.7064 247° West  Level FlightAware Approximate
Wed 09:19:00 AM -33.0167 116.6899 247° West  Level FlightAware Approximate
Wed 09:20:00 AM -33.0227 116.6734 247° West  Level FlightAware Approximate
Wed 09:21:00 AM -33.0286 116.6570 247° West  Level FlightAware Approximate
Wed 09:22:00 AM -33.0346 116.6405 247° West  Level FlightAware Approximate
Wed 09:23:00 AM -33.0406 116.6240 247° West  Level FlightAware Approximate
Wed 09:24:00 AM -33.0465 116.6076 247° West  Level FlightAware Approximate
Wed 09:25:00 AM -33.0525 116.5911 247° West  Level FlightAware Approximate
Wed 09:26:00 AM -33.0584 116.5746 247° West  Level FlightAware Approximate
Wed 09:27:00 AM -33.0644 116.5581 247° West  Level FlightAware Approximate
Wed 09:28:00 AM -33.0703 116.5416 247° West  Level FlightAware Approximate
Wed 09:28:23 AM -33.2450 116.0382 22° Northeast 4,500  Level Aus ATC (Calculated)
Wed 09:29:00 AM -33.0763 116.5251 247° West  Level FlightAware Approximate
Wed 09:30:00 AM -33.2549 116.0116 246° West  Level FlightAware Approximate
Wed 09:31:00 AM -33.2610 115.9952 246° West  Level FlightAware Approximate
Wed 09:32:00 AM -33.2671 115.9787 246° West  Level FlightAware Approximate
Wed 09:33:00 AM -33.2731 115.9623 246° West  Level FlightAware Approximate
Wed 09:34:00 AM -33.2792 115.9458 246° West  Level FlightAware Approximate
Wed 09:35:00 AM -33.2853 115.9294 246° West  Level FlightAware Approximate
Wed 09:36:00 AM -33.2914 115.9129 246° West  Level FlightAware Approximate
Wed 09:37:00 AM -33.2974 115.8965 246° West  Level FlightAware Approximate
Wed 09:38:00 AM -33.3035 115.8800 246° West  Level FlightAware Approximate
Wed 09:39:00 AM -33.3096 115.8635 246° West  Level FlightAware Approximate
Wed 09:40:00 AM -33.3156 115.8471 246° West  Level FlightAware Approximate
Wed 09:41:00 AM -33.3217 115.8306 246° West  Level FlightAware Approximate
Wed 09:42:00 AM -33.3278 115.8141 246° West  Level FlightAware Approximate
Wed 09:43:00 AM -33.3338 115.7977 246° West  Level FlightAware Approximate
Wed 09:43:17 AM -33.3781 115.6770 38° Northeast 100  Level Aus ATC (Calculated)
Wed 09:44:00 AM -33.3399 115.7812 246° West  Level FlightAware Approximate
Wed 09:45:00 AM -33.3523 115.6770 North  Level FlightAware Approximate
Wed 09:46:00 AM -33.3673 115.6770 180° South  Level FlightAware Approximate
Wed 09:47:00 AM -33.3824 115.6770 180° South  Level FlightAware Approximate
Wed 09:48:00 AM -33.3673 115.6770 360° North  Level FlightAware Approximate
Wed 09:49:00 AM -33.3824 115.6770 180° South  Level FlightAware Approximate
Wed 09:50:00 AM -33.3675 115.6795 North  Level Estimated
Wed 09:51:00 AM -33.3781 115.6770 249° West  Level FlightAware Approximate
Wed 09:51:40 AM -32.6976 116.3068 249° West 103 119 4,500  Level Aus ATC (RADAR)
Wed 09:52:50 AM -32.6858 116.2678 290° West 103 119 4,600 133 Climbing Aus ATC (RADAR)
Wed 09:53:55 AM -32.6774 116.2322 286° West 104 120 4,800  Climbing Aus ATC (RADAR)
Wed 09:54:55 AM -32.6686 116.1976 287° West 109 125 4,600 -138 Descending Aus ATC (RADAR)
Wed 09:56:05 AM -32.6557 116.1585 291° West 104 120 4,500 -92 Descending Aus ATC (RADAR)
Wed 09:57:05 AM -32.6438 116.1250 293° West 105 121 4,400 -48 Descending Aus ATC (RADAR)
Wed 09:58:10 AM -32.6347 116.0868 286° West 109 125 4,400 48 Level Aus ATC (RADAR)
Wed 09:59:09 AM -32.6253 116.0549 289° West 102 117 4,500 101 Climbing Aus ATC (RADAR)
Wed 10:00:09 AM -32.6145 116.0232 292° West 101 116 4,600 48 Climbing Aus ATC (RADAR)
Wed 10:01:14 AM -32.6008 115.9896 296° West 101 116 4,600  Level Aus ATC (RADAR)
Wed 10:02:24 AM -32.5881 115.9514 292° West 104 120 4,600  Level Aus ATC (RADAR)
Wed 10:03:24 AM -32.5759 115.9211 296° West 99 114 4,600 -92 Level Aus ATC (RADAR)
Wed 10:04:34 AM -32.5632 115.8819 291° West 109 125 4,400 -185 Descending Aus ATC (RADAR)
Wed 10:05:34 AM -32.5490 115.8488 297° West 115 132 4,200 48 Descending Aus ATC (RADAR)
Wed 10:06:39 AM -32.5207 115.8389 344° North 101 116 4,500 222 Climbing Aus ATC (RADAR)
Wed 10:07:49 AM -32.4882 115.8400 North 101 116 4,700 138 Climbing Aus ATC (RADAR)
Wed 10:08:49 AM -32.4593 115.8415 North 105 121 4,800  Climbing Aus ATC (RADAR)
Wed 10:09:53 AM -32.4264 115.8446 North 108 124 4,700 -140 Descending Aus ATC (RADAR)
Wed 10:10:58 AM -32.3922 115.8458 North 112 129 4,500  Descending Aus ATC (RADAR)
Wed 10:12:03 AM -32.3616 115.8492 North 99 114 4,700  Climbing Aus ATC (RADAR)
Wed 10:13:23 AM -32.3234 115.8581 11° North 107 123 4,500 -124 Descending Aus ATC (RADAR)
Wed 10:14:28 AM -32.2921 115.8647 10° North 101 116 4,400  Descending Aus ATC (RADAR)
Wed 10:15:33 AM -32.2619 115.8701 North 101 116 4,500 -96 Climbing Aus ATC (RADAR)
Wed 10:16:33 AM -32.2332 115.8720 North 102 117 4,200 -415 Descending Aus ATC (RADAR)
Wed 10:17:43 AM -32.1999 115.8753 North 104 120 3,600 -578 Descending Aus ATC (RADAR)
Wed 10:18:48 AM -32.1698 115.8799 North 99 114 2,900 -558 Descending Aus ATC (RADAR)
Wed 10:19:52 AM -32.1393 115.8820 North 102 117 2,400 -698 Descending Aus ATC (RADAR)
Wed 10:20:57 AM -32.1077 115.8818 360° North 107 123 1,400 -384 Descending Aus ATC (RADAR)
Wed 10:21:57 AM -32.0920 115.8642 317° Northwest 108 124 1,600 -185 Climbing Aus ATC (RADAR)
Wed 10:23:07 AM -32.1100 115.8725 159° South 78 90 1,000 -277 Descending Aus ATC (RADAR)
Wed 10:24:07 AM -32.0922 115.8874 35° Northeast 88 101 1,000  Level Aus ATC (RADAR)
Wed 10:25:12 AM -32.0735 115.8556 305° West 104 120 1,000 -185 Level Aus ATC (RADAR)
Wed 10:26:17 AM -32.0917 115.8509 192° South 58 67 600 -369 Descending Aus ATC (RADAR)
Wed 10:27:22 AM -32.0980 115.8674 114° Southeast 54 62 200 -231 Descending Aus ATC (RADAR)
Wed 10:28:27 AM -32.1021 115.8797 112° Southeast 20 23 100 -63 Descending Aus ATC (RADAR)
Wed 10:28:57 AM -32.1021 115.8811 86° East 11 13 100  Level Aus ATC (RADAR)

Login

Don't have an account? Register now (free) for customized features, flight alerts, and more!